createdAt,value
2023-01-25T00:04:07.903Z,100.00
2023-01-25T00:14:12.241Z,100.00
2023-01-25T00:24:18.123Z,100.00
2023-01-25T00:34:33.205Z,100.00
2023-01-25T00:44:39.543Z,100.00
2023-01-25T00:54:45.198Z,100.00
2023-01-25T01:04:50.741Z,100.00
2023-01-25T01:14:56.815Z,100.00
2023-01-25T01:25:02.380Z,100.00
2023-01-25T01:35:09.465Z,100.00
2023-01-25T01:45:32.418Z,100.00
2023-01-25T01:55:38.100Z,99.96
2023-01-25T02:05:48.866Z,99.86
2023-01-25T02:15:56.566Z,99.81
2023-01-25T02:26:03.856Z,99.92
2023-01-25T02:36:18.261Z,99.90
2023-01-25T02:46:23.172Z,99.86
2023-01-25T02:56:30.171Z,99.80
2023-01-25T03:06:34.606Z,99.63
2023-01-25T03:16:40.223Z,99.77
2023-01-25T03:27:03.479Z,99.55
2023-01-25T03:37:09.332Z,99.57
2023-01-25T03:47:15.207Z,99.55
2023-01-25T03:57:20.837Z,99.60
2023-01-25T04:07:26.271Z,99.35
2023-01-25T04:17:31.661Z,99.48
2023-01-25T04:27:37.441Z,99.50
2023-01-25T04:37:43.151Z,99.24
2023-01-25T04:47:48.676Z,99.55
2023-01-25T04:57:54.104Z,99.25
2023-01-25T05:07:59.751Z,99.23
2023-01-25T05:18:05.943Z,99.23
2023-01-25T05:28:11.573Z,99.13
2023-01-25T05:38:17.224Z,98.79
2023-01-25T05:48:23.205Z,99.08
2023-01-25T05:58:28.816Z,99.04
2023-01-25T06:08:34.389Z,99.12
2023-01-25T06:18:40.051Z,99.25
2023-01-25T06:28:45.624Z,99.03
2023-01-25T06:38:50.886Z,98.95
2023-01-25T06:48:56.316Z,98.88
2023-01-25T06:59:01.956Z,98.79
2023-01-25T07:09:08.152Z,98.92
2023-01-25T07:19:13.594Z,98.92
2023-01-25T07:29:19.158Z,99.10
2023-01-25T07:39:24.657Z,98.81
2023-01-25T07:49:30.035Z,98.85
2023-01-25T07:59:35.449Z,99.07
2023-01-25T08:09:41.498Z,99.09
2023-01-25T08:19:47.088Z,99.25
2023-01-25T08:29:54.307Z,98.88
2023-01-25T08:40:00.121Z,98.74
2023-01-25T08:50:05.934Z,98.43
2023-01-25T09:00:13.842Z,98.28
2023-01-25T09:10:18.537Z,98.40
2023-01-25T09:20:24.378Z,98.88
2023-01-25T09:30:44.922Z,98.85
2023-01-25T09:40:52.466Z,98.93
2023-01-25T09:51:05.900Z,99.11
2023-01-25T10:01:19.493Z,98.84
2023-01-25T10:11:28.372Z,98.62
2023-01-25T10:21:32.688Z,98.59
2023-01-25T10:31:38.002Z,98.69
2023-01-25T10:41:47.363Z,98.64
2023-01-25T10:51:53.682Z,98.61
2023-01-25T11:02:20.113Z,98.80
2023-01-25T11:12:26.218Z,98.35
2023-01-25T11:22:31.829Z,98.35
2023-01-25T11:32:39.578Z,98.45
2023-01-25T11:42:46.629Z,98.44
2023-01-25T11:52:56.277Z,98.28
2023-01-25T12:03:31.037Z,98.18
2023-01-25T12:23:56.847Z,98.41
2023-01-25T12:34:04.883Z,98.61
2023-01-25T12:44:10.415Z,98.44
2023-01-25T12:54:15.468Z,98.21
2023-01-25T13:04:22.279Z,98.01
2023-01-25T13:14:29.900Z,98.08
2023-01-25T13:24:36.305Z,98.17
2023-01-25T13:34:59.342Z,98.11
2023-01-25T13:45:06.343Z,98.30
2023-01-25T13:55:17.481Z,98.24
2023-01-25T14:05:25.475Z,98.05
2023-01-25T14:15:32.299Z,98.07
2023-01-25T14:25:42.006Z,98.44
2023-01-25T14:36:00.066Z,98.33
2023-01-25T14:46:21.030Z,98.25
2023-01-25T14:56:35.263Z,98.24
2023-01-25T15:06:51.654Z,98.12
2023-01-25T15:16:55.727Z,98.15
2023-01-25T15:27:01.312Z,98.16
2023-01-25T15:37:06.785Z,98.17
2023-01-25T15:47:11.889Z,98.07
2023-01-25T15:57:16.987Z,98.13
2023-01-25T16:07:22.577Z,98.28
2023-01-25T16:17:27.491Z,98.04
2023-01-25T16:27:36.112Z,98.12
2023-01-25T16:37:41.898Z,98.25
2023-01-25T16:57:50.250Z,98.16
2023-01-25T17:07:55.946Z,98.24
2023-01-25T17:18:01.891Z,98.25
2023-01-25T17:28:07.536Z,98.31
2023-01-25T17:38:13.166Z,98.10
2023-01-25T17:48:19.158Z,98.21
2023-01-25T17:58:24.655Z,98.44
2023-01-25T18:08:30.031Z,98.10
2023-01-25T18:18:35.548Z,98.08
2023-01-25T18:28:41.481Z,98.10
2023-01-25T18:38:47.605Z,98.12
2023-01-25T18:48:53.224Z,98.42
2023-01-25T19:09:04.598Z,98.20
2023-01-25T19:19:10.462Z,98.34
2023-01-25T19:29:14.779Z,98.28
2023-01-25T19:39:20.645Z,98.16
2023-01-25T19:49:26.310Z,97.99
2023-01-25T19:59:31.426Z,97.52
2023-01-25T20:09:37.049Z,97.45
2023-01-25T20:19:44.183Z,97.48
2023-01-25T20:29:49.554Z,97.33
2023-01-25T20:39:54.963Z,97.11
2023-01-25T20:50:00.569Z,96.96
2023-01-25T21:00:05.412Z,96.93
2023-01-25T21:10:12.166Z,96.72
2023-01-25T21:20:18.094Z,96.41
2023-01-25T21:30:23.638Z,96.37
2023-01-25T21:40:30.759Z,96.17
2023-01-25T21:50:55.403Z,95.99
2023-01-25T22:01:02.188Z,96.14
2023-01-25T22:11:07.783Z,96.04
2023-01-25T22:21:12.447Z,95.96
2023-01-25T22:31:18.850Z,95.85
2023-01-25T22:41:25.506Z,95.84
2023-01-25T22:51:31.367Z,95.58
2023-01-25T23:01:36.837Z,95.55
2023-01-25T23:11:42.488Z,95.43
2023-01-25T23:21:47.897Z,95.59
2023-01-25T23:31:53.283Z,95.43
2023-01-25T23:41:57.930Z,95.27
2023-01-25T23:52:04.144Z,95.25
